Red Hook — WDE4476 — position and weather

sailwx.info

Track history (hours):
 
Tides and Currents Weather Stations Pressure Air Temp Water Temp Dewpoint Dewpoint Depression Visibility Wind Speed Wind Dir Waves Ship Positions

Red Hook

Owner: CITY OF NEW YORK, Brooklyn, NY. More information available from US FCC via Universal Licensing System and Coast Guard Vessel Documentation Center.

Last reported at 2017-Dec-17 21:30 UTC. Time now 2017-Dec-17 21:37 UTC.
Position N 40°48' W 073°53'.

Length 106 m; draft 5 m.

Type: Tanker. MMSI: 367353660.

Date/timePositionNaut miles runAvg speedWind from/ knotsBaromVisibWave heightAir tempDewpointWater temp
2017-Dec-17 21:30N 40°48' W 073°53'0 0.0
2017-Dec-17 21:00N 40°48' W 073°53'0 0.0
2017-Dec-17 20:30N 40°48' W 073°53'0 0.0
2017-Dec-17 20:00N 40°48' W 073°53'0 0.0
2017-Dec-17 19:30N 40°48' W 073°53'0 0.0
2017-Dec-17 19:00N 40°48' W 073°53'0 0.0
2017-Dec-17 18:30N 40°48' W 073°53'0 0.0
2017-Dec-17 17:59N 40°48' W 073°53'0 0.0
2017-Dec-17 17:30N 40°48' W 073°53'0 0.0
2017-Dec-17 17:00N 40°48' W 073°53'0 0.0
2017-Dec-17 16:30N 40°48' W 073°53'0 0.0
2017-Dec-17 15:59N 40°48' W 073°53'0 0.0
2017-Dec-17 15:30N 40°48' W 073°53'0 0.0
2017-Dec-17 15:00N 40°48' W 073°53'0 0.0
2017-Dec-17 14:30N 40°48' W 073°53'0 0.0
2017-Dec-17 14:00N 40°48' W 073°53'0 0.0
2017-Dec-17 13:30N 40°48' W 073°53'0 0.0
2017-Dec-17 13:00N 40°48' W 073°53'0 0.0
2017-Dec-17 12:30N 40°48' W 073°53'0 0.0
2017-Dec-17 12:00N 40°48' W 073°53'0 0.0
2017-Dec-17 11:30N 40°48' W 073°53'0 0.0
2017-Dec-17 11:00N 40°48' W 073°53'0 0.0
2017-Dec-17 10:30N 40°48' W 073°53'0 0.0
2017-Dec-17 10:00N 40°48' W 073°53'0 0.0
2017-Dec-17 09:30N 40°48' W 073°53'0 0.0
2017-Dec-17 09:00N 40°48' W 073°53'0 0.0
2017-Dec-17 08:30N 40°48' W 073°53'0 0.0
2017-Dec-17 08:00N 40°48' W 073°53'0 0.0
2017-Dec-17 07:30N 40°48' W 073°53'0 0.0
2017-Dec-17 07:00N 40°48' W 073°53'0 0.0
2017-Dec-17 06:30N 40°48' W 073°53'0 0.0
2017-Dec-17 06:00N 40°48' W 073°53'0 0.0
2017-Dec-17 05:30N 40°48' W 073°53'0 0.0
2017-Dec-17 05:00N 40°48' W 073°53'0 0.0
2017-Dec-17 04:30N 40°48' W 073°53'0 0.0
2017-Dec-17 04:00N 40°48' W 073°53'0 0.0
2017-Dec-17 03:30N 40°48' W 073°53'0 0.0
2017-Dec-17 02:59N 40°48' W 073°53'0 0.0
2017-Dec-17 02:30N 40°48' W 073°53'0 0.0
2017-Dec-17 01:59N 40°48' W 073°53'0 0.0
2017-Dec-17 01:29N 40°48' W 073°53'0 0.0
2017-Dec-17 01:00N 40°48' W 073°53'0 0.0
2017-Dec-17 00:30N 40°48' W 073°53'0 0.0
2017-Dec-16 23:59N 40°48' W 073°53'0 0.0
2017-Dec-16 23:30N 40°48' W 073°53'0 0.0
2017-Dec-16 23:00N 40°48' W 073°53'0 0.0
2017-Dec-16 22:30N 40°48' W 073°53'0 0.0
2017-Dec-16 22:00N 40°48' W 073°53'0 0.0
2017-Dec-16 21:30N 40°48' W 073°53'0 0.0
2017-Dec-16 21:00N 40°48' W 073°53'0 0.0
2017-Dec-16 20:24N 40°48' W 073°53'0 0.0
2017-Dec-16 19:58N 40°48' W 073°53'0 0.0
2017-Dec-16 19:30N 40°48' W 073°53'0 0.0
2017-Dec-16 18:54N 40°48' W 073°53'3 6.4
2017-Dec-16 18:28N 40°47' W 073°56'4 8.5
2017-Dec-16 18:00N 40°43' W 073°58'7 6.4
2017-Dec-16 17:00N 40°50' W 073°58'0 0.0
2017-Dec-16 16:30N 40°50' W 073°58'0 0.0
2017-Dec-16 16:00N 40°50' W 073°58'0 0.0
2017-Dec-16 15:30N 40°50' W 073°58'0 0.2
2017-Dec-16 15:00N 40°50' W 073°58'611.2
2017-Dec-16 14:30N 40°45' W 074°01'2 5.0
2017-Dec-16 14:00N 40°43' W 073°58'510.2
2017-Dec-16 13:30N 40°48' W 073°55'1 2.5
2017-Dec-16 13:00N 40°48' W 073°53'0 0.0
2017-Dec-16 12:30N 40°48' W 073°53'0 0.0
2017-Dec-16 11:59N 40°48' W 073°53'0 0.0
2017-Dec-16 11:30N 40°48' W 073°53'0 0.0
2017-Dec-16 10:59N 40°48' W 073°53'0 0.0
2017-Dec-16 10:29N 40°48' W 073°53'0 0.0
2017-Dec-16 10:00N 40°48' W 073°53'0 0.0
2017-Dec-16 09:30N 40°48' W 073°53'0 0.0
2017-Dec-16 08:59N 40°48' W 073°53'0 0.0
2017-Dec-16 08:30N 40°48' W 073°53'0 0.0
2017-Dec-16 08:00N 40°48' W 073°53'0 0.0
2017-Dec-16 07:30N 40°48' W 073°53'0 0.0
2017-Dec-16 06:58N 40°48' W 073°53'0 0.0
2017-Dec-16 06:30N 40°48' W 073°53'0 0.0
2017-Dec-16 06:00N 40°48' W 073°53'0 0.0
2017-Dec-16 05:30N 40°48' W 073°53'0 0.0
2017-Dec-16 05:00N 40°48' W 073°53'0 0.0
2017-Dec-16 04:30N 40°48' W 073°53'0 0.0
2017-Dec-16 04:00N 40°48' W 073°53'0 0.0
2017-Dec-15 23:30N 40°48' W 073°53'510.4
2017-Dec-15 22:59N 40°44' W 073°58'3 6.5
2017-Dec-15 22:30N 40°43' W 074°02'5 9.6
2017-Dec-15 22:00N 40°47' W 073°59'3 5.1
2017-Dec-15 21:30N 40°50' W 073°58'0 0.0
2017-Dec-15 21:00N 40°50' W 073°58'0 0.0
2017-Dec-15 20:30N 40°50' W 073°58'0 0.0
2017-Dec-15 20:00N 40°50' W 073°58'2 3.2
2017-Dec-15 19:30N 40°48' W 073°59'4 8.7
2017-Dec-15 19:00N 40°44' W 074°01'2 4.7
2017-Dec-15 18:30N 40°43' W 073°58'611.9
2017-Dec-15 18:00N 40°48' W 073°53'0 0.3
2017-Dec-15 17:30N 40°48' W 073°53'0 0.0
2017-Dec-15 16:59N 40°48' W 073°53'0 0.0
2017-Dec-15 16:30N 40°48' W 073°53'0 0.0
2017-Dec-15 15:59N 40°48' W 073°53'2 4.4
2017-Dec-15 15:30N 40°48' W 073°50'0 0.0
2017-Dec-15 14:59N 40°48' W 073°50'0 0.0
2017-Dec-15 14:30N 40°48' W 073°50'0 0.0
2017-Dec-15 14:00N 40°48' W 073°50'2 1.1
2017-Dec-15 12:06N 40°48' W 073°53'0 0.0
2017-Dec-15 11:59N 40°48' W 073°53'0 0.0
2017-Dec-15 11:25N 40°48' W 073°53'0 0.0
2017-Dec-15 10:57N 40°48' W 073°53'0 0.0
2017-Dec-15 10:30N 40°48' W 073°53'0 0.0
2017-Dec-15 10:00N 40°48' W 073°53'0 0.0
2017-Dec-15 09:29N 40°48' W 073°53'0 0.0
2017-Dec-15 08:59N 40°48' W 073°53'0 0.0
2017-Dec-15 08:30N 40°48' W 073°53'0 0.0
2017-Dec-15 07:59N 40°48' W 073°53'0 0.0
2017-Dec-15 07:30N 40°48' W 073°53'0 0.0
2017-Dec-15 06:59N 40°48' W 073°53'0 0.0
2017-Dec-15 06:22N 40°48' W 073°53'0 0.0
2017-Dec-15 05:56N 40°48' W 073°53'0 0.0
2017-Dec-15 05:29N 40°48' W 073°53'0 0.0
2017-Dec-15 05:00N 40°48' W 073°53'0 0.0
2017-Dec-15 04:30N 40°48' W 073°53'0 0.0
2017-Dec-15 04:00N 40°48' W 073°53'0 0.0
2017-Dec-15 02:30N 40°48' W 073°53'0 0.0
2017-Dec-15 01:00N 40°48' W 073°53'0 0.0
2017-Dec-15 00:30N 40°48' W 073°53'4 0.6
2017-Dec-14 18:30N 40°50' W 073°58'0 0.0
2017-Dec-14 18:00N 40°50' W 073°58'0 0.0
2017-Dec-14 17:30N 40°50' W 073°58'0 0.0
2017-Dec-14 17:00N 40°50' W 073°58'0 0.0
2017-Dec-14 16:30N 40°50' W 073°58'4 7.0
2017-Dec-14 15:59N 40°46' W 073°60'4 3.8
2017-Dec-14 15:00N 40°47' W 073°55'2 3.6
2017-Dec-14 14:30N 40°48' W 073°53'0 0.0
2017-Dec-14 14:00N 40°48' W 073°53'0 0.0
2017-Dec-14 13:30N 40°48' W 073°53'0 0.0
2017-Dec-14 13:00N 40°48' W 073°53'0 0.0
2017-Dec-14 12:30N 40°48' W 073°53'0 0.0
2017-Dec-14 12:00N 40°48' W 073°53'0 0.0
2017-Dec-14 11:30N 40°48' W 073°53'0 0.0
2017-Dec-14 11:00N 40°48' W 073°53'0 0.0
2017-Dec-14 10:30N 40°48' W 073°53'0 0.0
2017-Dec-14 10:00N 40°48' W 073°53'0 0.0
2017-Dec-14 09:29N 40°48' W 073°53'0 0.0
2017-Dec-14 09:00N 40°48' W 073°53'0 0.0
2017-Dec-14 08:30N 40°48' W 073°53'0 0.0
2017-Dec-14 08:00N 40°48' W 073°53'0 0.0
2017-Dec-14 07:30N 40°48' W 073°53'0 0.0
2017-Dec-14 07:00N 40°48' W 073°53'0 0.0
2017-Dec-14 06:30N 40°48' W 073°53'0 0.0
2017-Dec-14 06:00N 40°48' W 073°53'0 0.0
2017-Dec-14 05:30N 40°48' W 073°53'0 0.0
2017-Dec-14 05:00N 40°48' W 073°53'0 0.0
2017-Dec-14 04:30N 40°48' W 073°53'0 0.0
2017-Dec-14 04:00N 40°48' W 073°53'0 0.0
2017-Dec-14 03:30N 40°48' W 073°53'0 0.0
2017-Dec-14 03:00N 40°48' W 073°53'0 0.0
2017-Dec-14 02:30N 40°48' W 073°53'0 0.0
2017-Dec-14 02:00N 40°48' W 073°53'0 0.0
2017-Dec-14 01:30N 40°48' W 073°53'0 0.0
2017-Dec-14 01:00N 40°48' W 073°53'0 0.0
2017-Dec-14 00:29N 40°48' W 073°53'0 0.0
2017-Dec-14 00:00N 40°48' W 073°53'0 0.0
2017-Dec-13 23:30N 40°48' W 073°53'0 0.0
2017-Dec-13 23:00N 40°48' W 073°53'0 0.0
2017-Dec-13 22:30N 40°48' W 073°53'1 1.4
2017-Dec-13 21:59N 40°48' W 073°54'613.2
2017-Dec-13 21:30N 40°43' W 073°58'611.8
2017-Dec-13 21:00N 40°39' W 074°04'3 5.1
2017-Dec-13 20:30N 40°38' W 074°08'0 0.0
2017-Dec-13 20:00N 40°38' W 074°08'0 0.0
2017-Dec-13 19:30N 40°38' W 074°08'0 0.0
2017-Dec-13 19:00N 40°38' W 074°08'0 0.0
2017-Dec-13 18:30N 40°38' W 074°08'0 0.1
2017-Dec-13 18:00N 40°39' W 074°08'4 7.1
2017-Dec-13 17:30N 40°40' W 074°03'612.9
2017-Dec-13 17:00N 40°46' W 074°01'4 8.3
2017-Dec-13 16:29N 40°50' W 073°58'0 0.0
2017-Dec-13 16:00N 40°50' W 073°58'0 0.0
2017-Dec-13 15:30N 40°50' W 073°58'0 0.0
2017-Dec-13 15:00N 40°50' W 073°58'1 1.9
2017-Dec-13 14:30N 40°49' W 073°58'611.5
2017-Dec-13 14:00N 40°44' W 074°01'3 5.9
2017-Dec-13 13:30N 40°45' W 073°58'5 7.5
2017-Dec-13 12:52N 40°48' W 073°53'0 0.0
2017-Dec-13 12:29N 40°48' W 073°53'0 0.0
2017-Dec-13 12:00N 40°48' W 073°53'0 0.0
2017-Dec-13 11:30N 40°48' W 073°53'0 0.0
2017-Dec-13 10:59N 40°48' W 073°53'0 0.0
2017-Dec-13 10:29N 40°48' W 073°53'0 0.0
2017-Dec-13 09:56N 40°48' W 073°53'0 0.0
2017-Dec-13 08:06N 40°48' W 073°53'0 0.0
2017-Dec-13 08:00N 40°48' W 073°53'0 0.0
2017-Dec-13 07:30N 40°48' W 073°53'0 0.0
2017-Dec-13 07:00N 40°48' W 073°53'0 0.0
2017-Dec-13 06:30N 40°48' W 073°53'0 0.0
2017-Dec-13 06:00N 40°48' W 073°53'0 0.0
2017-Dec-13 05:29N 40°48' W 073°53'0 0.0
2017-Dec-13 05:00N 40°48' W 073°53'0 0.0
2017-Dec-13 04:30N 40°48' W 073°53'0 0.0
2017-Dec-13 04:00N 40°48' W 073°53'0 0.0
2017-Dec-13 03:30N 40°48' W 073°53'0 0.0
2017-Dec-13 03:00N 40°48' W 073°53'0 0.0
2017-Dec-13 02:30N 40°48' W 073°53'0 0.0
2017-Dec-13 02:00N 40°48' W 073°53'0 0.0
2017-Dec-13 01:30N 40°48' W 073°53'0 0.0
2017-Dec-13 01:00N 40°48' W 073°53'0 0.0
2017-Dec-13 00:30N 40°48' W 073°53'0 0.0
2017-Dec-13 00:00N 40°48' W 073°53'0 0.0
2017-Dec-12 23:30N 40°48' W 073°53'0 0.0
2017-Dec-12 23:00N 40°48' W 073°53'0 0.0
2017-Dec-12 22:29N 40°48' W 073°53'0 0.0
2017-Dec-12 21:59N 40°48' W 073°53'0 0.0
2017-Dec-12 21:29N 40°48' W 073°53'0 0.0
2017-Dec-12 20:59N 40°48' W 073°53'0 0.0
2017-Dec-12 20:30N 40°48' W 073°53'0 0.0
2017-Dec-12 20:00N 40°48' W 073°53'0 0.0
2017-Dec-12 19:30N 40°48' W 073°53'0 0.0
2017-Dec-12 19:00N 40°48' W 073°53'0 0.0
2017-Dec-12 18:29N 40°48' W 073°53'0 0.0
2017-Dec-12 18:00N 40°48' W 073°53'0 0.0
2017-Dec-12 17:30N 40°48' W 073°53'0 0.0
2017-Dec-12 17:00N 40°48' W 073°53'0 0.0
2017-Dec-12 16:29N 40°48' W 073°53'0 0.0
2017-Dec-12 16:00N 40°48' W 073°53'0 0.0
2017-Dec-12 15:30N 40°48' W 073°53'0 0.0
2017-Dec-12 15:00N 40°48' W 073°53'0 0.0
2017-Dec-12 14:29N 40°48' W 073°53'0 0.0
2017-Dec-12 13:59N 40°48' W 073°53'0 0.0
2017-Dec-12 13:30N 40°48' W 073°53'0 0.0
2017-Dec-12 12:59N 40°48' W 073°53'0 0.0
2017-Dec-12 12:30N 40°48' W 073°53'0 0.0
2017-Dec-12 12:00N 40°48' W 073°53'0 0.0
2017-Dec-12 11:30N 40°48' W 073°53'0 0.0
2017-Dec-12 11:00N 40°48' W 073°53'0 0.0
2017-Dec-12 10:30N 40°48' W 073°53'0 0.0
2017-Dec-12 10:00N 40°48' W 073°53'0 0.0
2017-Dec-12 09:29N 40°48' W 073°53'0 0.0
2017-Dec-12 09:00N 40°48' W 073°53'0 0.0
2017-Dec-12 08:30N 40°48' W 073°53'0 0.0
2017-Dec-12 08:00N 40°48' W 073°53'0 0.0
2017-Dec-12 07:30N 40°48' W 073°53'0 0.0
2017-Dec-12 07:00N 40°48' W 073°53'0 0.0
2017-Dec-12 06:30N 40°48' W 073°53'0 0.0
2017-Dec-12 06:00N 40°48' W 073°53'0 0.0
2017-Dec-12 05:29N 40°48' W 073°53'0 0.0
2017-Dec-12 05:00N 40°48' W 073°53'0 0.0
2017-Dec-12 04:30N 40°48' W 073°53'0 0.0
2017-Dec-12 04:00N 40°48' W 073°53'0 0.0
2017-Dec-12 03:29N 40°48' W 073°53'0 0.0
2017-Dec-12 03:00N 40°48' W 073°53'0 0.0
2017-Dec-12 02:30N 40°48' W 073°53'0 0.0
2017-Dec-12 02:00N 40°48' W 073°53'0 0.0
2017-Dec-12 01:30N 40°48' W 073°53'0 0.0
2017-Dec-12 01:00N 40°48' W 073°53'0 0.0
2017-Dec-12 00:29N 40°48' W 073°53'0 0.0
2017-Dec-12 00:00N 40°48' W 073°53'0 0.0
2017-Dec-11 23:30N 40°48' W 073°53'0 0.0
2017-Dec-11 23:00N 40°48' W 073°53'0 0.0
2017-Dec-11 22:30N 40°48' W 073°53'0 0.0
2017-Dec-11 21:58N 40°48' W 073°53'0 0.0
2017-Dec-11 21:30N 40°48' W 073°53'0 0.1
2017-Dec-11 21:00N 40°48' W 073°53'2 0.8
2017-Dec-11 18:55N 40°47' W 073°55'0 0.0
2017-Dec-11 18:22N 40°47' W 073°55'0 0.0
2017-Dec-11 17:57N 40°47' W 073°55'0 0.0
2017-Dec-11 17:30N 40°47' W 073°55'0 0.0
2017-Dec-11 16:57N 40°47' W 073°55'0 0.2
2017-Dec-11 16:27N 40°47' W 073°55'3 6.1
2017-Dec-11 16:00N 40°48' W 073°52'1 1.9
2017-Dec-11 15:30N 40°48' W 073°50'0 0.0
2017-Dec-11 14:59N 40°48' W 073°50'0 0.0
2017-Dec-11 14:30N 40°48' W 073°50'0 0.0
2017-Dec-11 13:59N 40°48' W 073°50'0 0.5
2017-Dec-11 13:30N 40°48' W 073°50'2 4.1
2017-Dec-11 13:00N 40°48' W 073°53'0 0.0
2017-Dec-11 12:28N 40°48' W 073°53'0 0.0
2017-Dec-11 11:59N 40°48' W 073°53'0 0.0
2017-Dec-11 11:29N 40°48' W 073°53'0 0.0
2017-Dec-11 11:00N 40°48' W 073°53'0 0.0
2017-Dec-11 10:30N 40°48' W 073°53'0 0.0
2017-Dec-11 10:00N 40°48' W 073°53'0 0.0
2017-Dec-11 09:30N 40°48' W 073°53'0 0.0
2017-Dec-11 08:59N 40°48' W 073°53'0 0.0
2017-Dec-11 08:30N 40°48' W 073°53'0 0.0
2017-Dec-11 08:00N 40°48' W 073°53'0 0.0
2017-Dec-11 07:30N 40°48' W 073°53'0 0.0
2017-Dec-11 07:00N 40°48' W 073°53'0 0.0
2017-Dec-11 06:30N 40°48' W 073°53'0 0.0
2017-Dec-11 06:00N 40°48' W 073°53'0 0.0
2017-Dec-11 05:30N 40°48' W 073°53'0 0.0
2017-Dec-11 05:00N 40°48' W 073°53'0 0.0
2017-Dec-11 04:30N 40°48' W 073°53'0 0.0
2017-Dec-11 03:59N 40°48' W 073°53'0 0.0
2017-Dec-11 03:30N 40°48' W 073°53'0 0.0
2017-Dec-11 03:00N 40°48' W 073°53'0 0.0
2017-Dec-11 02:30N 40°48' W 073°53'0 0.0
2017-Dec-11 02:00N 40°48' W 073°53'0 0.0
2017-Dec-11 01:30N 40°48' W 073°53'0 0.0
2017-Dec-11 01:00N 40°48' W 073°53'0 0.0
2017-Dec-11 00:29N 40°48' W 073°53'0 0.0
2017-Dec-11 00:00N 40°48' W 073°53'0 0.0
2017-Dec-10 23:30N 40°48' W 073°53'0 0.0
2017-Dec-10 22:59N 40°48' W 073°53'0 0.0
2017-Dec-10 22:30N 40°48' W 073°53'0 0.0
2017-Dec-10 22:00N 40°48' W 073°53'0 0.0
2017-Dec-10 21:30N 40°48' W 073°53'0 0.0
2017-Dec-10 21:00N 40°48' W 073°53'0 0.0
2017-Dec-10 20:30N 40°48' W 073°53'0 0.0
2017-Dec-10 19:39N 40°48' W 073°53'0 0.0
2017-Dec-10 17:56N 40°48' W 073°53'0 0.0
2017-Dec-10 17:30N 40°48' W 073°53'0 0.0
2017-Dec-10 17:00N 40°48' W 073°53'0 0.0
2017-Dec-10 16:30N 40°48' W 073°53'0 0.0
2017-Dec-10 16:00N 40°48' W 073°53'0 0.0
2017-Dec-10 15:30N 40°48' W 073°53'0 0.0
2017-Dec-10 14:59N 40°48' W 073°53'0 0.0
2017-Dec-10 14:29N 40°48' W 073°53'0 0.0
2017-Dec-10 14:00N 40°48' W 073°53'0 0.0
2017-Dec-10 13:30N 40°48' W 073°53'0 0.0
2017-Dec-10 13:00N 40°48' W 073°53'0 0.0
2017-Dec-10 12:30N 40°48' W 073°53'0 0.0
2017-Dec-10 12:00N 40°48' W 073°53'0 0.0
2017-Dec-10 11:30N 40°48' W 073°53'0 0.0
2017-Dec-10 11:00N 40°48' W 073°53'0 0.0
2017-Dec-10 10:30N 40°48' W 073°53'0 0.0
2017-Dec-10 10:00N 40°48' W 073°53'0 0.0
2017-Dec-10 09:30N 40°48' W 073°53'0 0.0
2017-Dec-10 08:59N 40°48' W 073°53'0 0.0
2017-Dec-10 08:30N 40°48' W 073°53'0 0.0
2017-Dec-10 08:00N 40°48' W 073°53'0 0.0
2017-Dec-10 07:30N 40°48' W 073°53'0 0.0
2017-Dec-10 07:00N 40°48' W 073°53'0 0.0
2017-Dec-10 06:30N 40°48' W 073°53'0 0.0
2017-Dec-10 06:00N 40°48' W 073°53'0 0.0
2017-Dec-10 05:29N 40°48' W 073°53'0 0.0
2017-Dec-10 05:00N 40°48' W 073°53'0 0.0
2017-Dec-10 04:30N 40°48' W 073°53'0 0.0
2017-Dec-10 04:00N 40°48' W 073°53'0 0.0
2017-Dec-10 03:30N 40°48' W 073°53'0 0.0
2017-Dec-10 03:00N 40°48' W 073°53'0 0.0
2017-Dec-10 02:29N 40°48' W 073°53'0 0.0
2017-Dec-10 02:00N 40°48' W 073°53'0 0.0
2017-Dec-10 01:30N 40°48' W 073°53'0 0.0
2017-Dec-10 01:00N 40°48' W 073°53'0 0.0
2017-Dec-10 00:30N 40°48' W 073°53'0 0.0
2017-Dec-10 00:00N 40°48' W 073°53'0 0.0
2017-Dec-09 23:29N 40°48' W 073°53'0 0.0
2017-Dec-09 23:00N 40°48' W 073°53'0 0.0
2017-Dec-09 22:30N 40°48' W 073°53'0 0.0
2017-Dec-09 22:00N 40°48' W 073°53'0 0.0
2017-Dec-09 21:30N 40°48' W 073°53'0 0.0
2017-Dec-09 21:00N 40°48' W 073°53'0 0.0
2017-Dec-09 20:29N 40°48' W 073°53'2 3.6
2017-Dec-09 20:00N 40°47' W 073°55'0 0.0
2017-Dec-09 19:04N 40°47' W 073°55'0 0.0
2017-Dec-09 18:11N 40°47' W 073°55'0 0.0
2017-Dec-09 17:58N 40°47' W 073°55'4 7.9
2017-Dec-09 17:30N 40°44' W 073°58'3 6.2
2017-Dec-09 17:00N 40°43' W 074°01'4 7.4
2017-Dec-09 16:30N 40°46' W 074°00'4 7.6
2017-Dec-09 16:00N 40°49' W 073°58'0 0.3
2017-Dec-09 15:30N 40°50' W 073°58'0 0.0
2017-Dec-09 15:00N 40°50' W 073°58'0 0.0
2017-Dec-09 14:30N 40°50' W 073°58'0 0.4
2017-Dec-09 14:00N 40°49' W 073°58'5 9.9
2017-Dec-09 13:30N 40°45' W 074°01'3 6.0
2017-Dec-09 13:00N 40°43' W 073°59'612.1
2017-Dec-09 12:30N 40°48' W 073°54'1 2.1
2017-Dec-09 11:59N 40°48' W 073°53'0 0.0
2017-Dec-09 11:31N 40°48' W 073°53'0 0.0
2017-Dec-09 10:59N 40°48' W 073°53'0 0.0
2017-Dec-09 10:30N 40°48' W 073°53'0 0.0
2017-Dec-09 10:00N 40°48' W 073°53'0 0.0
2017-Dec-09 09:30N 40°48' W 073°53'0 0.0
2017-Dec-09 09:01N 40°48' W 073°53'0 0.0
2017-Dec-09 08:30N 40°48' W 073°53'0 0.0
2017-Dec-09 08:00N 40°48' W 073°53'0 0.0
2017-Dec-09 07:30N 40°48' W 073°53'0 0.0
2017-Dec-09 07:00N 40°48' W 073°53'0 0.0
2017-Dec-09 06:30N 40°48' W 073°53'0 0.0
2017-Dec-09 06:00N 40°48' W 073°53'0 0.0
2017-Dec-09 05:30N 40°48' W 073°53'0 0.0
2017-Dec-09 05:00N 40°48' W 073°53'0 0.0
2017-Dec-09 04:30N 40°48' W 073°53'0 0.0
2017-Dec-09 04:00N 40°48' W 073°53'0 0.0
2017-Dec-09 03:30N 40°48' W 073°53'0 0.0
2017-Dec-09 03:00N 40°48' W 073°53'0 0.0
2017-Dec-09 02:30N 40°48' W 073°53'0 0.0
2017-Dec-09 02:01N 40°48' W 073°53'0 0.0
2017-Dec-09 01:30N 40°48' W 073°53'0 0.0
2017-Dec-09 01:00N 40°48' W 073°53'0 0.0
2017-Dec-09 00:30N 40°48' W 073°53'3 5.8
2017-Dec-09 00:00N 40°47' W 073°56'5 9.9
2017-Dec-08 23:31N 40°42' W 073°60'5 9.9
2017-Dec-08 23:01N 40°39' W 074°04'3 6.2
2017-Dec-08 22:30N 40°41' W 074°08'2 3.9
2017-Dec-08 22:01N 40°43' W 074°07'0 0.0
2017-Dec-08 21:31N 40°43' W 074°07'0 0.0
2017-Dec-08 21:01N 40°43' W 074°07'0 0.0
2017-Dec-08 20:31N 40°43' W 074°07'1 1.3
2017-Dec-08 20:00N 40°42' W 074°07'4 7.3
2017-Dec-08 19:30N 40°39' W 074°08'1 1.4
2017-Dec-08 19:01N 40°38' W 074°08'0 0.0
2017-Dec-08 18:30N 40°38' W 074°08'0 0.0
2017-Dec-08 18:01N 40°38' W 074°08'2 3.6
2017-Dec-08 17:30N 40°39' W 074°05'3 7.0
2017-Dec-08 17:01N 40°41' W 074°01'3 6.2
2017-Dec-08 16:31N 40°43' W 073°58'4 7.5
2017-Dec-08 16:00N 40°46' W 073°56'3 6.7
2017-Dec-08 15:30N 40°48' W 073°53'2 3.3
2017-Dec-08 14:59N 40°48' W 073°50'0 0.0
2017-Dec-08 14:27N 40°48' W 073°50'0 0.0
2017-Dec-08 14:00N 40°48' W 073°50'0 0.0
2017-Dec-08 13:30N 40°48' W 073°50'0 0.0
2017-Dec-08 13:01N 40°48' W 073°50'2 4.1
2017-Dec-08 12:30N 40°48' W 073°53'0 0.0
2017-Dec-08 12:00N 40°48' W 073°53'0 0.0
2017-Dec-08 11:29N 40°48' W 073°53'0 0.0
2017-Dec-08 11:00N 40°48' W 073°53'0 0.0
2017-Dec-08 10:30N 40°48' W 073°53'0 0.0
2017-Dec-08 10:00N 40°48' W 073°53'0 0.0
2017-Dec-08 09:30N 40°48' W 073°53'0 0.0
2017-Dec-08 09:00N 40°48' W 073°53'0 0.0
2017-Dec-08 08:31N 40°48' W 073°53'0 0.0
2017-Dec-08 08:00N 40°48' W 073°53'0 0.0
2017-Dec-08 07:29N 40°48' W 073°53'0 0.0
2017-Dec-08 06:59N 40°48' W 073°53'0 0.0
2017-Dec-08 06:30N 40°48' W 073°53'0 0.0
2017-Dec-08 06:00N 40°48' W 073°53'0 0.0
2017-Dec-08 02:16N 40°48' W 073°53'0 0.0
2017-Dec-08 02:01N 40°48' W 073°53'0 0.0
2017-Dec-08 01:30N 40°48' W 073°53'0 0.0
2017-Dec-08 01:00N 40°48' W 073°53'0 0.0
2017-Dec-08 00:30N 40°48' W 073°53'1 1.1
2017-Dec-07 23:59N 40°48' W 073°54'510.6
2017-Dec-07 23:30N 40°44' W 073°58'510.7
2017-Dec-07 23:01N 40°40' W 074°02'510.2
2017-Dec-07 22:30N 40°39' W 074°09'4 8.7
2017-Dec-07 22:00N 40°43' W 074°07'0 0.0
2017-Dec-07 21:30N 40°43' W 074°07'  
Track history (hours):
 
Tides and Currents Weather Stations Pressure Air Temp Water Temp Dewpoint Dewpoint Depression Visibility Wind Speed Wind Dir Waves Ship Positions

Red Hook

Owner: CITY OF NEW YORK, Brooklyn, NY. More information available from US FCC via Universal Licensing System and Coast Guard Vessel Documentation Center.

Last reported at 2017-Dec-17 21:30 UTC. Time now 2017-Dec-17 21:37 UTC.
Position N 40°48' W 073°53'.

Length 106 m; draft 5 m.

Type: Tanker. MMSI: 367353660.

Date/timePositionNaut miles runAvg speedWind from/ knotsBaromVisibWave heightAir tempDewpointWater temp
2017-Dec-17 21:30N 40°48' W 073°53'0 0.0
2017-Dec-17 21:00N 40°48' W 073°53'0 0.0
2017-Dec-17 20:30N 40°48' W 073°53'0 0.0
2017-Dec-17 20:00N 40°48' W 073°53'0 0.0
2017-Dec-17 19:30N 40°48' W 073°53'0 0.0
2017-Dec-17 19:00N 40°48' W 073°53'0 0.0
2017-Dec-17 18:30N 40°48' W 073°53'0 0.0
2017-Dec-17 17:59N 40°48' W 073°53'0 0.0
2017-Dec-17 17:30N 40°48' W 073°53'0 0.0
2017-Dec-17 17:00N 40°48' W 073°53'0 0.0
2017-Dec-17 16:30N 40°48' W 073°53'0 0.0
2017-Dec-17 15:59N 40°48' W 073°53'0 0.0
2017-Dec-17 15:30N 40°48' W 073°53'0 0.0
2017-Dec-17 15:00N 40°48' W 073°53'0 0.0
2017-Dec-17 14:30N 40°48' W 073°53'0 0.0
2017-Dec-17 14:00N 40°48' W 073°53'0 0.0
2017-Dec-17 13:30N 40°48' W 073°53'0 0.0
2017-Dec-17 13:00N 40°48' W 073°53'0 0.0
2017-Dec-17 12:30N 40°48' W 073°53'0 0.0
2017-Dec-17 12:00N 40°48' W 073°53'0 0.0
2017-Dec-17 11:30N 40°48' W 073°53'0 0.0
2017-Dec-17 11:00N 40°48' W 073°53'0 0.0
2017-Dec-17 10:30N 40°48' W 073°53'0 0.0
2017-Dec-17 10:00N 40°48' W 073°53'0 0.0
2017-Dec-17 09:30N 40°48' W 073°53'0 0.0
2017-Dec-17 09:00N 40°48' W 073°53'0 0.0
2017-Dec-17 08:30N 40°48' W 073°53'0 0.0
2017-Dec-17 08:00N 40°48' W 073°53'0 0.0
2017-Dec-17 07:30N 40°48' W 073°53'0 0.0
2017-Dec-17 07:00N 40°48' W 073°53'0 0.0
2017-Dec-17 06:30N 40°48' W 073°53'0 0.0
2017-Dec-17 06:00N 40°48' W 073°53'0 0.0
2017-Dec-17 05:30N 40°48' W 073°53'0 0.0
2017-Dec-17 05:00N 40°48' W 073°53'0 0.0
2017-Dec-17 04:30N 40°48' W 073°53'0 0.0
2017-Dec-17 04:00N 40°48' W 073°53'0 0.0
2017-Dec-17 03:30N 40°48' W 073°53'0 0.0
2017-Dec-17 02:59N 40°48' W 073°53'0 0.0
2017-Dec-17 02:30N 40°48' W 073°53'0 0.0
2017-Dec-17 01:59N 40°48' W 073°53'0 0.0
2017-Dec-17 01:29N 40°48' W 073°53'0 0.0
2017-Dec-17 01:00N 40°48' W 073°53'0 0.0
2017-Dec-17 00:30N 40°48' W 073°53'0 0.0
2017-Dec-16 23:59N 40°48' W 073°53'0 0.0
2017-Dec-16 23:30N 40°48' W 073°53'0 0.0
2017-Dec-16 23:00N 40°48' W 073°53'0 0.0
2017-Dec-16 22:30N 40°48' W 073°53'0 0.0
2017-Dec-16 22:00N 40°48' W 073°53'0 0.0
2017-Dec-16 21:30N 40°48' W 073°53'0 0.0
2017-Dec-16 21:00N 40°48' W 073°53'0 0.0
2017-Dec-16 20:24N 40°48' W 073°53'0 0.0
2017-Dec-16 19:58N 40°48' W 073°53'0 0.0
2017-Dec-16 19:30N 40°48' W 073°53'0 0.0
2017-Dec-16 18:54N 40°48' W 073°53'3 6.4
2017-Dec-16 18:28N 40°47' W 073°56'4 8.5
2017-Dec-16 18:00N 40°43' W 073°58'7 6.4
2017-Dec-16 17:00N 40°50' W 073°58'0 0.0
2017-Dec-16 16:30N 40°50' W 073°58'0 0.0
2017-Dec-16 16:00N 40°50' W 073°58'0 0.0
2017-Dec-16 15:30N 40°50' W 073°58'0 0.2
2017-Dec-16 15:00N 40°50' W 073°58'611.2
2017-Dec-16 14:30N 40°45' W 074°01'2 5.0
2017-Dec-16 14:00N 40°43' W 073°58'510.2
2017-Dec-16 13:30N 40°48' W 073°55'1 2.5
2017-Dec-16 13:00N 40°48' W 073°53'0 0.0
2017-Dec-16 12:30N 40°48' W 073°53'0 0.0
2017-Dec-16 11:59N 40°48' W 073°53'0 0.0
2017-Dec-16 11:30N 40°48' W 073°53'0 0.0
2017-Dec-16 10:59N 40°48' W 073°53'0 0.0
2017-Dec-16 10:29N 40°48' W 073°53'0 0.0
2017-Dec-16 10:00N 40°48' W 073°53'0 0.0
2017-Dec-16 09:30N 40°48' W 073°53'0 0.0
2017-Dec-16 08:59N 40°48' W 073°53'0 0.0
2017-Dec-16 08:30N 40°48' W 073°53'0 0.0
2017-Dec-16 08:00N 40°48' W 073°53'0 0.0
2017-Dec-16 07:30N 40°48' W 073°53'0 0.0
2017-Dec-16 06:58N 40°48' W 073°53'0 0.0
2017-Dec-16 06:30N 40°48' W 073°53'0 0.0
2017-Dec-16 06:00N 40°48' W 073°53'0 0.0
2017-Dec-16 05:30N 40°48' W 073°53'0 0.0
2017-Dec-16 05:00N 40°48' W 073°53'0 0.0
2017-Dec-16 04:30N 40°48' W 073°53'0 0.0
2017-Dec-16 04:00N 40°48' W 073°53'0 0.0
2017-Dec-15 23:30N 40°48' W 073°53'510.4
2017-Dec-15 22:59N 40°44' W 073°58'3 6.5
2017-Dec-15 22:30N 40°43' W 074°02'5 9.6
2017-Dec-15 22:00N 40°47' W 073°59'3 5.1
2017-Dec-15 21:30N 40°50' W 073°58'0 0.0
2017-Dec-15 21:00N 40°50' W 073°58'0 0.0
2017-Dec-15 20:30N 40°50' W 073°58'0 0.0
2017-Dec-15 20:00N 40°50' W 073°58'2 3.2
2017-Dec-15 19:30N 40°48' W 073°59'4 8.7
2017-Dec-15 19:00N 40°44' W 074°01'2 4.7
2017-Dec-15 18:30N 40°43' W 073°58'611.9
2017-Dec-15 18:00N 40°48' W 073°53'0 0.3
2017-Dec-15 17:30N 40°48' W 073°53'0 0.0
2017-Dec-15 16:59N 40°48' W 073°53'0 0.0
2017-Dec-15 16:30N 40°48' W 073°53'0 0.0
2017-Dec-15 15:59N 40°48' W 073°53'2 4.4
2017-Dec-15 15:30N 40°48' W 073°50'0 0.0
2017-Dec-15 14:59N 40°48' W 073°50'0 0.0
2017-Dec-15 14:30N 40°48' W 073°50'0 0.0
2017-Dec-15 14:00N 40°48' W 073°50'2 1.1
2017-Dec-15 12:06N 40°48' W 073°53'0 0.0
2017-Dec-15 11:59N 40°48' W 073°53'0 0.0
2017-Dec-15 11:25N 40°48' W 073°53'0 0.0
2017-Dec-15 10:57N 40°48' W 073°53'0 0.0
2017-Dec-15 10:30N 40°48' W 073°53'0 0.0
2017-Dec-15 10:00N 40°48' W 073°53'0 0.0
2017-Dec-15 09:29N 40°48' W 073°53'0 0.0
2017-Dec-15 08:59N 40°48' W 073°53'0 0.0
2017-Dec-15 08:30N 40°48' W 073°53'0 0.0
2017-Dec-15 07:59N 40°48' W 073°53'0 0.0
2017-Dec-15 07:30N 40°48' W 073°53'0 0.0
2017-Dec-15 06:59N 40°48' W 073°53'0 0.0
2017-Dec-15 06:22N 40°48' W 073°53'0 0.0
2017-Dec-15 05:56N 40°48' W 073°53'0 0.0
2017-Dec-15 05:29N 40°48' W 073°53'0 0.0
2017-Dec-15 05:00N 40°48' W 073°53'0 0.0
2017-Dec-15 04:30N 40°48' W 073°53'0 0.0
2017-Dec-15 04:00N 40°48' W 073°53'0 0.0
2017-Dec-15 02:30N 40°48' W 073°53'0 0.0
2017-Dec-15 01:00N 40°48' W 073°53'0 0.0
2017-Dec-15 00:30N 40°48' W 073°53'4 0.6
2017-Dec-14 18:30N 40°50' W 073°58'0 0.0
2017-Dec-14 18:00N 40°50' W 073°58'0 0.0
2017-Dec-14 17:30N 40°50' W 073°58'0 0.0
2017-Dec-14 17:00N 40°50' W 073°58'0 0.0
2017-Dec-14 16:30N 40°50' W 073°58'4 7.0
2017-Dec-14 15:59N 40°46' W 073°60'4 3.8
2017-Dec-14 15:00N 40°47' W 073°55'2 3.6
2017-Dec-14 14:30N 40°48' W 073°53'0 0.0
2017-Dec-14 14:00N 40°48' W 073°53'0 0.0
2017-Dec-14 13:30N 40°48' W 073°53'0 0.0
2017-Dec-14 13:00N 40°48' W 073°53'0 0.0
2017-Dec-14 12:30N 40°48' W 073°53'0 0.0
2017-Dec-14 12:00N 40°48' W 073°53'0 0.0
2017-Dec-14 11:30N 40°48' W 073°53'0 0.0
2017-Dec-14 11:00N 40°48' W 073°53'0 0.0
2017-Dec-14 10:30N 40°48' W 073°53'0 0.0
2017-Dec-14 10:00N 40°48' W 073°53'0 0.0
2017-Dec-14 09:29N 40°48' W 073°53'0 0.0
2017-Dec-14 09:00N 40°48' W 073°53'0 0.0
2017-Dec-14 08:30N 40°48' W 073°53'0 0.0
2017-Dec-14 08:00N 40°48' W 073°53'0 0.0
2017-Dec-14 07:30N 40°48' W 073°53'0 0.0
2017-Dec-14 07:00N 40°48' W 073°53'0 0.0
2017-Dec-14 06:30N 40°48' W 073°53'0 0.0
2017-Dec-14 06:00N 40°48' W 073°53'0 0.0
2017-Dec-14 05:30N 40°48' W 073°53'0 0.0
2017-Dec-14 05:00N 40°48' W 073°53'0 0.0
2017-Dec-14 04:30N 40°48' W 073°53'0 0.0
2017-Dec-14 04:00N 40°48' W 073°53'0 0.0
2017-Dec-14 03:30N 40°48' W 073°53'0 0.0
2017-Dec-14 03:00N 40°48' W 073°53'0 0.0
2017-Dec-14 02:30N 40°48' W 073°53'0 0.0
2017-Dec-14 02:00N 40°48' W 073°53'0 0.0
2017-Dec-14 01:30N 40°48' W 073°53'0 0.0
2017-Dec-14 01:00N 40°48' W 073°53'0 0.0
2017-Dec-14 00:29N 40°48' W 073°53'0 0.0
2017-Dec-14 00:00N 40°48' W 073°53'0 0.0
2017-Dec-13 23:30N 40°48' W 073°53'0 0.0
2017-Dec-13 23:00N 40°48' W 073°53'0 0.0
2017-Dec-13 22:30N 40°48' W 073°53'1 1.4
2017-Dec-13 21:59N 40°48' W 073°54'613.2
2017-Dec-13 21:30N 40°43' W 073°58'611.8
2017-Dec-13 21:00N 40°39' W 074°04'3 5.1
2017-Dec-13 20:30N 40°38' W 074°08'0 0.0
2017-Dec-13 20:00N 40°38' W 074°08'0 0.0
2017-Dec-13 19:30N 40°38' W 074°08'0 0.0
2017-Dec-13 19:00N 40°38' W 074°08'0 0.0
2017-Dec-13 18:30N 40°38' W 074°08'0 0.1
2017-Dec-13 18:00N 40°39' W 074°08'4 7.1
2017-Dec-13 17:30N 40°40' W 074°03'612.9
2017-Dec-13 17:00N 40°46' W 074°01'4 8.3
2017-Dec-13 16:29N 40°50' W 073°58'0 0.0
2017-Dec-13 16:00N 40°50' W 073°58'0 0.0
2017-Dec-13 15:30N 40°50' W 073°58'0 0.0
2017-Dec-13 15:00N 40°50' W 073°58'1 1.9
2017-Dec-13 14:30N 40°49' W 073°58'611.5
2017-Dec-13 14:00N 40°44' W 074°01'3 5.9
2017-Dec-13 13:30N 40°45' W 073°58'5 7.5
2017-Dec-13 12:52N 40°48' W 073°53'0 0.0
2017-Dec-13 12:29N 40°48' W 073°53'0 0.0
2017-Dec-13 12:00N 40°48' W 073°53'0 0.0
2017-Dec-13 11:30N 40°48' W 073°53'0 0.0
2017-Dec-13 10:59N 40°48' W 073°53'0 0.0
2017-Dec-13 10:29N 40°48' W 073°53'0 0.0
2017-Dec-13 09:56N 40°48' W 073°53'0 0.0
2017-Dec-13 08:06N 40°48' W 073°53'0 0.0
2017-Dec-13 08:00N 40°48' W 073°53'0 0.0
2017-Dec-13 07:30N 40°48' W 073°53'0 0.0
2017-Dec-13 07:00N 40°48' W 073°53'0 0.0
2017-Dec-13 06:30N 40°48' W 073°53'0 0.0
2017-Dec-13 06:00N 40°48' W 073°53'0 0.0
2017-Dec-13 05:29N 40°48' W 073°53'0 0.0
2017-Dec-13 05:00N 40°48' W 073°53'0 0.0
2017-Dec-13 04:30N 40°48' W 073°53'0 0.0
2017-Dec-13 04:00N 40°48' W 073°53'0 0.0
2017-Dec-13 03:30N 40°48' W 073°53'0 0.0
2017-Dec-13 03:00N 40°48' W 073°53'0 0.0
2017-Dec-13 02:30N 40°48' W 073°53'0 0.0
2017-Dec-13 02:00N 40°48' W 073°53'0 0.0
2017-Dec-13 01:30N 40°48' W 073°53'0 0.0
2017-Dec-13 01:00N 40°48' W 073°53'0 0.0
2017-Dec-13 00:30N 40°48' W 073°53'0 0.0
2017-Dec-13 00:00N 40°48' W 073°53'0 0.0
2017-Dec-12 23:30N 40°48' W 073°53'0 0.0
2017-Dec-12 23:00N 40°48' W 073°53'0 0.0
2017-Dec-12 22:29N 40°48' W 073°53'0 0.0
2017-Dec-12 21:59N 40°48' W 073°53'0 0.0
2017-Dec-12 21:29N 40°48' W 073°53'0 0.0
2017-Dec-12 20:59N 40°48' W 073°53'0 0.0
2017-Dec-12 20:30N 40°48' W 073°53'0 0.0
2017-Dec-12 20:00N 40°48' W 073°53'0 0.0
2017-Dec-12 19:30N 40°48' W 073°53'0 0.0
2017-Dec-12 19:00N 40°48' W 073°53'0 0.0
2017-Dec-12 18:29N 40°48' W 073°53'0 0.0
2017-Dec-12 18:00N 40°48' W 073°53'0 0.0
2017-Dec-12 17:30N 40°48' W 073°53'0 0.0
2017-Dec-12 17:00N 40°48' W 073°53'0 0.0
2017-Dec-12 16:29N 40°48' W 073°53'0 0.0
2017-Dec-12 16:00N 40°48' W 073°53'0 0.0
2017-Dec-12 15:30N 40°48' W 073°53'0 0.0
2017-Dec-12 15:00N 40°48' W 073°53'0 0.0
2017-Dec-12 14:29N 40°48' W 073°53'0 0.0
2017-Dec-12 13:59N 40°48' W 073°53'0 0.0
2017-Dec-12 13:30N 40°48' W 073°53'0 0.0
2017-Dec-12 12:59N 40°48' W 073°53'0 0.0
2017-Dec-12 12:30N 40°48' W 073°53'0 0.0
2017-Dec-12 12:00N 40°48' W 073°53'0 0.0
2017-Dec-12 11:30N 40°48' W 073°53'0 0.0
2017-Dec-12 11:00N 40°48' W 073°53'0 0.0
2017-Dec-12 10:30N 40°48' W 073°53'0 0.0
2017-Dec-12 10:00N 40°48' W 073°53'0 0.0
2017-Dec-12 09:29N 40°48' W 073°53'0 0.0
2017-Dec-12 09:00N 40°48' W 073°53'0 0.0
2017-Dec-12 08:30N 40°48' W 073°53'0 0.0
2017-Dec-12 08:00N 40°48' W 073°53'0 0.0
2017-Dec-12 07:30N 40°48' W 073°53'0 0.0
2017-Dec-12 07:00N 40°48' W 073°53'0 0.0
2017-Dec-12 06:30N 40°48' W 073°53'0 0.0
2017-Dec-12 06:00N 40°48' W 073°53'0 0.0
2017-Dec-12 05:29N 40°48' W 073°53'0 0.0
2017-Dec-12 05:00N 40°48' W 073°53'0 0.0
2017-Dec-12 04:30N 40°48' W 073°53'0 0.0
2017-Dec-12 04:00N 40°48' W 073°53'0 0.0
2017-Dec-12 03:29N 40°48' W 073°53'0 0.0
2017-Dec-12 03:00N 40°48' W 073°53'0 0.0
2017-Dec-12 02:30N 40°48' W 073°53'0 0.0
2017-Dec-12 02:00N 40°48' W 073°53'0 0.0
2017-Dec-12 01:30N 40°48' W 073°53'0 0.0
2017-Dec-12 01:00N 40°48' W 073°53'0 0.0
2017-Dec-12 00:29N 40°48' W 073°53'0 0.0
2017-Dec-12 00:00N 40°48' W 073°53'0 0.0
2017-Dec-11 23:30N 40°48' W 073°53'0 0.0
2017-Dec-11 23:00N 40°48' W 073°53'0 0.0
2017-Dec-11 22:30N 40°48' W 073°53'0 0.0
2017-Dec-11 21:58N 40°48' W 073°53'0 0.0
2017-Dec-11 21:30N 40°48' W 073°53'0 0.1
2017-Dec-11 21:00N 40°48' W 073°53'2 0.8
2017-Dec-11 18:55N 40°47' W 073°55'0 0.0
2017-Dec-11 18:22N 40°47' W 073°55'0 0.0
2017-Dec-11 17:57N 40°47' W 073°55'0 0.0
2017-Dec-11 17:30N 40°47' W 073°55'0 0.0
2017-Dec-11 16:57N 40°47' W 073°55'0 0.2
2017-Dec-11 16:27N 40°47' W 073°55'3 6.1
2017-Dec-11 16:00N 40°48' W 073°52'1 1.9
2017-Dec-11 15:30N 40°48' W 073°50'0 0.0
2017-Dec-11 14:59N 40°48' W 073°50'0 0.0
2017-Dec-11 14:30N 40°48' W 073°50'0 0.0
2017-Dec-11 13:59N 40°48' W 073°50'0 0.5
2017-Dec-11 13:30N 40°48' W 073°50'2 4.1
2017-Dec-11 13:00N 40°48' W 073°53'0 0.0
2017-Dec-11 12:28N 40°48' W 073°53'0 0.0
2017-Dec-11 11:59N 40°48' W 073°53'0 0.0
2017-Dec-11 11:29N 40°48' W 073°53'0 0.0
2017-Dec-11 11:00N 40°48' W 073°53'0 0.0
2017-Dec-11 10:30N 40°48' W 073°53'0 0.0
2017-Dec-11 10:00N 40°48' W 073°53'0 0.0
2017-Dec-11 09:30N 40°48' W 073°53'0 0.0
2017-Dec-11 08:59N 40°48' W 073°53'0 0.0
2017-Dec-11 08:30N 40°48' W 073°53'0 0.0
2017-Dec-11 08:00N 40°48' W 073°53'0 0.0
2017-Dec-11 07:30N 40°48' W 073°53'0 0.0
2017-Dec-11 07:00N 40°48' W 073°53'0 0.0
2017-Dec-11 06:30N 40°48' W 073°53'0 0.0
2017-Dec-11 06:00N 40°48' W 073°53'0 0.0
2017-Dec-11 05:30N 40°48' W 073°53'0 0.0
2017-Dec-11 05:00N 40°48' W 073°53'0 0.0
2017-Dec-11 04:30N 40°48' W 073°53'0 0.0
2017-Dec-11 03:59N 40°48' W 073°53'0 0.0
2017-Dec-11 03:30N 40°48' W 073°53'0 0.0
2017-Dec-11 03:00N 40°48' W 073°53'0 0.0
2017-Dec-11 02:30N 40°48' W 073°53'0 0.0
2017-Dec-11 02:00N 40°48' W 073°53'0 0.0
2017-Dec-11 01:30N 40°48' W 073°53'0 0.0
2017-Dec-11 01:00N 40°48' W 073°53'0 0.0
2017-Dec-11 00:29N 40°48' W 073°53'0 0.0
2017-Dec-11 00:00N 40°48' W 073°53'0 0.0
2017-Dec-10 23:30N 40°48' W 073°53'0 0.0
2017-Dec-10 22:59N 40°48' W 073°53'0 0.0
2017-Dec-10 22:30N 40°48' W 073°53'0 0.0
2017-Dec-10 22:00N 40°48' W 073°53'0 0.0
2017-Dec-10 21:30N 40°48' W 073°53'0 0.0
2017-Dec-10 21:00N 40°48' W 073°53'0 0.0
2017-Dec-10 20:30N 40°48' W 073°53'0 0.0
2017-Dec-10 19:39N 40°48' W 073°53'0 0.0
2017-Dec-10 17:56N 40°48' W 073°53'0 0.0
2017-Dec-10 17:30N 40°48' W 073°53'0 0.0
2017-Dec-10 17:00N 40°48' W 073°53'0 0.0
2017-Dec-10 16:30N 40°48' W 073°53'0 0.0
2017-Dec-10 16:00N 40°48' W 073°53'0 0.0
2017-Dec-10 15:30N 40°48' W 073°53'0 0.0
2017-Dec-10 14:59N 40°48' W 073°53'0 0.0
2017-Dec-10 14:29N 40°48' W 073°53'0 0.0
2017-Dec-10 14:00N 40°48' W 073°53'0 0.0
2017-Dec-10 13:30N 40°48' W 073°53'0 0.0
2017-Dec-10 13:00N 40°48' W 073°53'0 0.0
2017-Dec-10 12:30N 40°48' W 073°53'0 0.0
2017-Dec-10 12:00N 40°48' W 073°53'0 0.0
2017-Dec-10 11:30N 40°48' W 073°53'0 0.0
2017-Dec-10 11:00N 40°48' W 073°53'0 0.0
2017-Dec-10 10:30N 40°48' W 073°53'0 0.0
2017-Dec-10 10:00N 40°48' W 073°53'0 0.0
2017-Dec-10 09:30N 40°48' W 073°53'0 0.0
2017-Dec-10 08:59N 40°48' W 073°53'0 0.0
2017-Dec-10 08:30N 40°48' W 073°53'0 0.0
2017-Dec-10 08:00N 40°48' W 073°53'0 0.0
2017-Dec-10 07:30N 40°48' W 073°53'0 0.0
2017-Dec-10 07:00N 40°48' W 073°53'0 0.0
2017-Dec-10 06:30N 40°48' W 073°53'0 0.0
2017-Dec-10 06:00N 40°48' W 073°53'0 0.0
2017-Dec-10 05:29N 40°48' W 073°53'0 0.0
2017-Dec-10 05:00N 40°48' W 073°53'0 0.0
2017-Dec-10 04:30N 40°48' W 073°53'0 0.0
2017-Dec-10 04:00N 40°48' W 073°53'0 0.0
2017-Dec-10 03:30N 40°48' W 073°53'0 0.0
2017-Dec-10 03:00N 40°48' W 073°53'0 0.0
2017-Dec-10 02:29N 40°48' W 073°53'0 0.0
2017-Dec-10 02:00N 40°48' W 073°53'0 0.0
2017-Dec-10 01:30N 40°48' W 073°53'0 0.0
2017-Dec-10 01:00N 40°48' W 073°53'0 0.0
2017-Dec-10 00:30N 40°48' W 073°53'0 0.0
2017-Dec-10 00:00N 40°48' W 073°53'0 0.0
2017-Dec-09 23:29N 40°48' W 073°53'0 0.0
2017-Dec-09 23:00N 40°48' W 073°53'0 0.0
2017-Dec-09 22:30N 40°48' W 073°53'0 0.0
2017-Dec-09 22:00N 40°48' W 073°53'0 0.0
2017-Dec-09 21:30N 40°48' W 073°53'0 0.0
2017-Dec-09 21:00N 40°48' W 073°53'0 0.0
2017-Dec-09 20:29N 40°48' W 073°53'2 3.6
2017-Dec-09 20:00N 40°47' W 073°55'0 0.0
2017-Dec-09 19:04N 40°47' W 073°55'0 0.0
2017-Dec-09 18:11N 40°47' W 073°55'0 0.0
2017-Dec-09 17:58N 40°47' W 073°55'4 7.9
2017-Dec-09 17:30N 40°44' W 073°58'3 6.2
2017-Dec-09 17:00N 40°43' W 074°01'4 7.4
2017-Dec-09 16:30N 40°46' W 074°00'4 7.6
2017-Dec-09 16:00N 40°49' W 073°58'0 0.3
2017-Dec-09 15:30N 40°50' W 073°58'0 0.0
2017-Dec-09 15:00N 40°50' W 073°58'0 0.0
2017-Dec-09 14:30N 40°50' W 073°58'0 0.4
2017-Dec-09 14:00N 40°49' W 073°58'5 9.9
2017-Dec-09 13:30N 40°45' W 074°01'3 6.0
2017-Dec-09 13:00N 40°43' W 073°59'612.1
2017-Dec-09 12:30N 40°48' W 073°54'1 2.1
2017-Dec-09 11:59N 40°48' W 073°53'0 0.0
2017-Dec-09 11:31N 40°48' W 073°53'0 0.0
2017-Dec-09 10:59N 40°48' W 073°53'0 0.0
2017-Dec-09 10:30N 40°48' W 073°53'0 0.0
2017-Dec-09 10:00N 40°48' W 073°53'0 0.0
2017-Dec-09 09:30N 40°48' W 073°53'0 0.0
2017-Dec-09 09:01N 40°48' W 073°53'0 0.0
2017-Dec-09 08:30N 40°48' W 073°53'0 0.0
2017-Dec-09 08:00N 40°48' W 073°53'0 0.0
2017-Dec-09 07:30N 40°48' W 073°53'0 0.0
2017-Dec-09 07:00N 40°48' W 073°53'0 0.0
2017-Dec-09 06:30N 40°48' W 073°53'0 0.0
2017-Dec-09 06:00N 40°48' W 073°53'0 0.0
2017-Dec-09 05:30N 40°48' W 073°53'0 0.0
2017-Dec-09 05:00N 40°48' W 073°53'0 0.0
2017-Dec-09 04:30N 40°48' W 073°53'0 0.0
2017-Dec-09 04:00N 40°48' W 073°53'0 0.0
2017-Dec-09 03:30N 40°48' W 073°53'0 0.0
2017-Dec-09 03:00N 40°48' W 073°53'0 0.0
2017-Dec-09 02:30N 40°48' W 073°53'0 0.0
2017-Dec-09 02:01N 40°48' W 073°53'0 0.0
2017-Dec-09 01:30N 40°48' W 073°53'0 0.0
2017-Dec-09 01:00N 40°48' W 073°53'0 0.0
2017-Dec-09 00:30N 40°48' W 073°53'3 5.8
2017-Dec-09 00:00N 40°47' W 073°56'5 9.9
2017-Dec-08 23:31N 40°42' W 073°60'5 9.9
2017-Dec-08 23:01N 40°39' W 074°04'3 6.2
2017-Dec-08 22:30N 40°41' W 074°08'2 3.9
2017-Dec-08 22:01N 40°43' W 074°07'0 0.0
2017-Dec-08 21:31N 40°43' W 074°07'0 0.0
2017-Dec-08 21:01N 40°43' W 074°07'0 0.0
2017-Dec-08 20:31N 40°43' W 074°07'1 1.3
2017-Dec-08 20:00N 40°42' W 074°07'4 7.3
2017-Dec-08 19:30N 40°39' W 074°08'1 1.4
2017-Dec-08 19:01N 40°38' W 074°08'0 0.0
2017-Dec-08 18:30N 40°38' W 074°08'0 0.0
2017-Dec-08 18:01N 40°38' W 074°08'2 3.6
2017-Dec-08 17:30N 40°39' W 074°05'3 7.0
2017-Dec-08 17:01N 40°41' W 074°01'3 6.2
2017-Dec-08 16:31N 40°43' W 073°58'4 7.5
2017-Dec-08 16:00N 40°46' W 073°56'3 6.7
2017-Dec-08 15:30N 40°48' W 073°53'2 3.3
2017-Dec-08 14:59N 40°48' W 073°50'0 0.0
2017-Dec-08 14:27N 40°48' W 073°50'0 0.0
2017-Dec-08 14:00N 40°48' W 073°50'0 0.0
2017-Dec-08 13:30N 40°48' W 073°50'0 0.0
2017-Dec-08 13:01N 40°48' W 073°50'2 4.1
2017-Dec-08 12:30N 40°48' W 073°53'0 0.0
2017-Dec-08 12:00N 40°48' W 073°53'0 0.0
2017-Dec-08 11:29N 40°48' W 073°53'0 0.0
2017-Dec-08 11:00N 40°48' W 073°53'0 0.0
2017-Dec-08 10:30N 40°48' W 073°53'0 0.0
2017-Dec-08 10:00N 40°48' W 073°53'0 0.0
2017-Dec-08 09:30N 40°48' W 073°53'0 0.0
2017-Dec-08 09:00N 40°48' W 073°53'0 0.0
2017-Dec-08 08:31N 40°48' W 073°53'0 0.0
2017-Dec-08 08:00N 40°48' W 073°53'0 0.0
2017-Dec-08 07:29N 40°48' W 073°53'0 0.0
2017-Dec-08 06:59N 40°48' W 073°53'0 0.0
2017-Dec-08 06:30N 40°48' W 073°53'0 0.0
2017-Dec-08 06:00N 40°48' W 073°53'0 0.0
2017-Dec-08 02:16N 40°48' W 073°53'0 0.0
2017-Dec-08 02:01N 40°48' W 073°53'0 0.0
2017-Dec-08 01:30N 40°48' W 073°53'0 0.0
2017-Dec-08 01:00N 40°48' W 073°53'0 0.0
2017-Dec-08 00:30N 40°48' W 073°53'1 1.1
2017-Dec-07 23:59N 40°48' W 073°54'510.6
2017-Dec-07 23:30N 40°44' W 073°58'510.7
2017-Dec-07 23:01N 40°40' W 074°02'510.2
2017-Dec-07 22:30N 40°39' W 074°09'4 8.7
2017-Dec-07 22:00N 40°43' W 074°07'0 0.0
2017-Dec-07 21:30N 40°43' W 074°07'  

Dump ship's entire track history